Terminal Aerodrome Forecast
Issued by NWS

Home | Current Version | Previous Version | Text Only | Print | Product List | Glossary On
Versions: 1 2 3 4 5 6 7 8 9 10 11 12 13
118
FTUS43 KPAH 010520
TAFCGI
TAF
KCGI 010520Z 0106/0206 19003KT P6SM VCSH FEW060 BKN250
     FM010900 21003KT 4SM BR FEW250
     FM011400 24004KT P6SM SCT025
     FM011700 25008KT P6SM SCT035
      TEMPO 0117/0120 BKN035
     FM020100 32005KT P6SM FEW150=

USA.gov is the U.S. government's official web portal to all federal, state and local government web resources and services.